Time;durP1;ratioP1;P1;durP2;ratioP2;P2;SDS_P1;SDS_P2;PMS_P1;PMS_P2;Temp;Humidity;BMP_temperature;BMP_pressure;BME280_temperature;BME280_humidity;BME280_pressure;Samples;Min_cycle;Max_cycle;Signal;HPM_P1;HPM_P2
2021/05/08 00:05:15;;;;;;;1.47;1.37;;;;;;;1.92;100.00;99474.38;10499908;28;20550;-74
2021/05/08 00:10:34;;;;;;;1.57;1.33;;;;;;;1.63;100.00;99474.44;10499626;28;20175;-74
2021/05/08 00:15:53;;;;;;;2.97;2.80;;;;;;;1.51;100.00;99465.44;10498095;28;20166;-73
2021/05/08 00:21:12;;;;;;;1.50;1.30;;;;;;;1.55;100.00;99474.53;10499349;28;20210;-75
2021/05/08 00:26:31;;;;;;;3.10;1.37;;;;;;;1.38;100.00;99470.00;10497861;28;20226;-77
2021/05/08 00:31:50;;;;;;;0.93;0.67;;;;;;;1.30;100.00;99473.56;10496360;28;20569;-75
2021/05/08 00:37:09;;;;;;;2.17;1.10;;;;;;;1.31;100.00;99474.38;10498698;28;20187;-74
2021/05/08 00:42:29;;;;;;;1.83;1.07;;;;;;;1.28;100.00;99477.75;10497604;28;20622;-75
2021/05/08 00:47:49;;;;;;;2.60;1.70;;;;;;;1.31;100.00;99467.03;10496000;28;20237;-75
2021/05/08 00:53:09;;;;;;;1.03;0.93;;;;;;;1.18;100.00;99473.50;10497499;28;20206;-74
2021/05/08 00:58:28;;;;;;;1.00;0.90;;;;;;;1.07;100.00;99475.00;10498076;28;20266;-73
2021/05/08 01:03:49;;;;;;;1.00;0.80;;;;;;;1.01;100.00;99476.31;10496466;28;20182;-75
2021/05/08 01:09:09;;;;;;;1.40;0.80;;;;;;;0.98;100.00;99473.47;10497800;28;20186;-73
2021/05/08 01:14:28;;;;;;;1.23;0.53;;;;;;;1.01;100.00;99476.31;10497007;28;20572;-74
2021/05/08 01:19:47;;;;;;;1.00;0.80;;;;;;;0.86;100.00;99476.88;10496273;28;20627;-74
2021/05/08 01:25:11;;;;;;;1.57;1.47;;;;;;;0.84;100.00;99481.81;10497396;28;20179;-75
2021/05/08 01:30:34;;;;;;;1.13;1.03;;;;;;;0.77;100.00;99491.56;10495079;28;20222;-74
2021/05/08 01:35:54;;;;;;;1.40;1.30;;;;;;;0.74;100.00;99488.72;10496257;28;20175;-74
2021/05/08 01:41:14;;;;;;;2.70;1.47;;;;;;;0.78;100.00;99485.03;10497226;28;20178;-74
2021/05/08 01:46:33;;;;;;;2.30;1.30;;;;;;;0.65;100.00;99491.47;10495851;28;20224;-73
2021/05/08 01:51:52;;;;;;;1.60;1.47;;;;;;;0.58;100.00;99474.94;10496789;28;20210;-73
2021/05/08 01:57:11;;;;;;;1.13;0.80;;;;;;;0.60;100.00;99477.31;10497088;28;20170;-74
2021/05/08 02:02:30;;;;;;;1.00;0.83;;;;;;;0.54;100.00;99465.09;10495543;28;20564;-75
2021/05/08 02:07:50;;;;;;;4.77;1.50;;;;;;;0.67;100.00;99470.28;10504644;28;20170;-73
2021/05/08 02:13:10;;;;;;;2.00;1.00;;;;;;;0.71;100.00;99462.31;10503955;28;20210;-74
2021/05/08 02:18:29;;;;;;;1.40;1.30;;;;;;;0.53;100.00;99468.91;10501779;28;20199;-74
2021/05/08 02:23:48;;;;;;;2.23;2.03;;;;;;;0.44;100.00;99462.72;10503885;28;20174;-74
2021/05/08 02:29:07;;;;;;;1.10;1.00;;;;;;;0.40;100.00;99470.69;10503408;28;20246;-76
2021/05/08 02:34:26;;;;;;;1.10;0.67;;;;;;;0.36;100.00;99466.25;10500833;28;20199;-76
2021/05/08 02:39:45;;;;;;;1.00;0.90;;;;;;;0.37;100.00;99467.84;10502368;28;20182;-75
2021/05/08 02:45:05;;;;;;;2.47;1.30;;;;;;;0.41;100.00;99455.25;10502360;28;20183;-73
2021/05/08 02:50:25;;;;;;;1.77;0.90;;;;;;;0.45;100.00;99454.28;10503167;28;20245;-73
2021/05/08 02:55:44;;;;;;;1.30;1.10;;;;;;;0.64;100.00;99459.31;10502896;28;20541;-77
2021/05/08 03:01:03;;;;;;;1.30;1.13;;;;;;;0.59;100.00;99462.19;10501172;28;20543;-74
2021/05/08 03:06:22;;;;;;;2.03;1.00;;;;;;;0.64;100.00;99453.91;10502416;28;20174;-74
2021/05/08 03:11:41;;;;;;;7.70;1.53;;;;;;;0.57;100.00;99454.41;10501898;28;20198;-75
2021/05/08 03:17:00;;;;;;;3.87;2.17;;;;;;;0.62;100.00;99462.31;10500531;28;20183;-75
2021/05/08 03:22:19;;;;;;;1.30;1.10;;;;;;;0.49;100.00;99449.81;10500750;28;20700;-75
2021/05/08 03:27:38;;;;;;;1.40;1.17;;;;;;;0.39;100.00;99452.09;10501259;28;20223;-76
2021/05/08 03:32:57;;;;;;;0.90;0.70;;;;;;;0.36;100.00;99463.53;10499792;28;20214;-76
2021/05/08 03:38:16;;;;;;;0.90;0.73;;;;;;;0.29;100.00;99457.84;10501089;28;20179;-76
2021/05/08 03:43:35;;;;;;;0.93;0.80;;;;;;;0.26;100.00;99458.47;10500931;28;20174;-76
2021/05/08 03:48:53;;;;;;;3.17;1.20;;;;;;;0.43;100.00;99461.13;10498264;28;20183;-77
2021/05/08 03:54:12;;;;;;;1.00;0.87;;;;;;;0.30;100.00;99464.84;10499923;28;20285;-78
2021/05/08 03:59:32;;;;;;;0.90;0.60;;;;;;;0.25;100.00;99457.69;10499155;28;20171;-76
2021/05/08 04:04:51;;;;;;;1.20;1.10;;;;;;;0.17;100.00;99455.81;10498768;28;20170;-74
2021/05/08 04:10:10;;;;;;;2.20;2.00;;;;;;;0.20;100.00;99459.78;10498677;28;20583;-75
2021/05/08 04:15:30;;;;;;;6.53;2.60;;;;;;;0.22;100.00;99465.66;10496634;28;20281;-75
2021/05/08 04:20:49;;;;;;;1.13;1.03;;;;;;;0.29;100.00;99460.56;10499399;28;20191;-74
2021/05/08 04:26:08;;;;;;;4.60;0.90;;;;;;;0.31;100.00;99469.16;10497049;28;20223;-74
2021/05/08 04:31:26;;;;;;;0.90;0.80;;;;;;;0.47;100.00;99471.00;10497518;28;20206;-74
2021/05/08 04:36:46;;;;;;;1.70;1.60;;;;;;;0.59;100.00;99473.00;10497589;28;20178;-73
2021/05/08 04:42:05;;;;;;;1.10;1.00;;;;;;;0.65;100.00;99471.72;10497666;28;20178;-76
2021/05/08 04:47:24;;;;;;;1.40;1.30;;;;;;;0.72;100.00;99480.13;10497042;28;20179;-77
2021/05/08 04:52:42;;;;;;;1.30;0.67;;;;;;;0.81;100.00;99473.56;10498029;28;20566;-74
2021/05/08 04:58:06;;;;;;;0.97;0.83;;;;;;;1.00;100.00;99482.06;10496966;28;20178;-74
2021/05/08 05:03:25;;;;;;;1.60;0.80;;;;;;;1.25;100.00;99484.63;10495780;28;20178;-76
2021/05/08 05:08:44;;;;;;;2.80;2.00;;;;;;;1.33;100.00;99474.84;10497614;28;20536;-76
2021/05/08 05:14:04;;;;;;;1.60;1.10;;;;;;;1.48;100.00;99475.03;10496279;28;20574;-76
2021/05/08 05:19:23;;;;;;;3.47;2.93;;;;;;;1.70;100.00;99474.69;10496367;28;20563;-76
2021/05/08 05:24:42;;;;;;;1.27;1.17;;;;;;;1.80;100.00;99482.44;10497415;28;20178;-73
2021/05/08 05:30:01;;;;;;;1.93;1.80;;;;;;;2.19;100.00;99476.47;10496289;28;20289;-75
2021/05/08 05:35:20;;;;;;;3.30;1.80;;;;;;;2.24;100.00;99481.72;10496576;28;20206;-75
2021/05/08 05:40:39;;;;;;;5.80;3.30;;;;;;;2.54;100.00;99486.66;10502030;28;20253;-75
2021/05/08 05:45:58;;;;;;;4.20;1.57;;;;;;;2.73;100.00;99481.47;10504420;28;20183;-75
2021/05/08 05:51:17;;;;;;;1.80;1.70;;;;;;;3.19;100.00;99481.81;10504319;28;20202;-76
2021/05/08 05:56:36;;;;;;;3.23;1.27;;;;;;;3.67;100.00;99487.16;10505130;28;20629;-75
2021/05/08 06:01:55;;;;;;;2.50;1.60;;;;;;;4.12;100.00;99483.81;10502747;28;20552;-75
2021/05/08 06:07:15;;;;;;;2.37;2.23;;;;;;;4.56;100.00;99485.41;10504700;28;20695;-74
2021/05/08 06:12:35;;;;;;;3.30;1.83;;;;;;;4.95;100.00;99482.53;10504107;28;20672;-75
2021/05/08 06:17:53;;;;;;;1.90;1.80;;;;;;;5.28;100.00;99480.22;10502884;28;20273;-75
2021/05/08 06:23:12;;;;;;;2.90;1.87;;;;;;;5.59;100.00;99477.41;10503897;28;20174;-76
2021/05/08 06:28:31;;;;;;;3.00;2.43;;;;;;;6.09;100.00;99478.09;10503376;28;20680;-75
2021/05/08 06:33:50;;;;;;;1.80;1.70;;;;;;;6.48;100.00;99472.25;10501904;28;20210;-75
2021/05/08 06:39:09;;;;;;;2.70;2.17;;;;;;;6.92;100.00;99461.69;10503550;28;20182;-75
2021/05/08 06:44:28;;;;;;;2.17;1.17;;;;;;;7.31;100.00;99464.66;10503120;28;20179;-75
2021/05/08 06:49:47;;;;;;;3.80;2.97;;;;;;;7.84;100.00;99460.69;10500192;28;20204;-75
2021/05/08 06:55:06;;;;;;;4.77;3.53;;;;;;;8.38;100.00;99447.28;10501172;28;20238;-76
2021/05/08 07:00:25;;;;;;;2.40;2.20;;;;;;;8.98;98.80;99455.69;10500346;28;20621;-76
2021/05/08 07:05:44;;;;;;;3.00;2.40;;;;;;;9.25;93.25;99453.56;10502362;28;20174;-73
2021/05/08 07:11:03;;;;;;;3.57;3.17;;;;;;;9.67;84.74;99457.38;10501132;28;20198;-72
2021/05/08 07:16:22;;;;;;;2.90;2.43;;;;;;;9.80;87.57;99453.91;10499724;28;20217;-73
2021/05/08 07:21:41;;;;;;;2.87;2.60;;;;;;;10.51;87.96;99462.03;10501944;28;20182;-74
2021/05/08 07:27:00;;;;;;;2.90;1.83;;;;;;;11.04;65.13;99451.91;10501412;28;20223;-76
2021/05/08 07:32:19;;;;;;;2.83;2.40;;;;;;;11.11;65.72;99454.66;10498996;28;20707;-73
2021/05/08 07:37:40;;;;;;;3.53;2.97;;;;;;;11.84;66.47;99445.50;10500337;28;20163;-74
2021/05/08 07:43:00;;;;;;;3.30;3.00;;;;;;;11.91;58.12;99445.47;10500947;28;20174;-74
2021/05/08 07:48:19;;;;;;;3.13;2.93;;;;;;;12.59;56.32;99434.50;10499458;28;20249;-74
2021/05/08 07:53:38;;;;;;;3.00;2.80;;;;;;;12.92;56.21;99438.25;10500167;28;20207;-76
2021/05/08 07:58:58;;;;;;;6.73;3.27;;;;;;;13.44;55.94;99425.97;10493814;28;20179;-76
2021/05/08 08:04:17;;;;;;;4.03;3.63;;;;;;;12.37;55.84;99431.09;10481573;28;20179;-74
2021/05/08 08:09:36;;;;;;;3.93;2.90;;;;;;;13.40;53.69;99433.50;10475705;28;20186;-74
2021/05/08 08:14:55;;;;;;;2.33;2.13;;;;;;;13.89;53.60;99425.44;10480339;28;20206;-74
2021/05/08 08:20:15;;;;;;;4.70;4.13;;;;;;;13.95;54.61;99421.06;10471873;28;20239;-74
2021/05/08 08:25:34;;;;;;;3.60;3.17;;;;;;;14.02;51.43;99428.47;10494488;28;20186;-74
2021/05/08 08:30:53;;;;;;;3.40;3.03;;;;;;;13.87;50.79;99416.81;10473000;28;20199;-73
2021/05/08 08:36:11;;;;;;;6.10;3.27;;;;;;;14.69;54.87;99415.34;10471680;28;20183;-74
2021/05/08 08:41:30;;;;;;;3.97;3.33;;;;;;;15.40;48.87;99417.34;10472534;28;20175;-74
2021/05/08 08:46:49;;;;;;;6.80;4.30;;;;;;;14.58;50.49;99414.72;10486371;28;20183;-75
2021/05/08 08:52:10;;;;;;;6.73;3.57;;;;;;;15.06;51.75;99410.41;10470933;28;20199;-75
2021/05/08 08:57:38;;;;;;;5.47;4.33;;;;;;;15.70;47.18;99405.31;10473325;28;20194;-78
2021/05/08 09:02:57;;;;;;;3.77;2.80;;;;;;;16.47;46.37;99391.41;10474130;28;20262;-76
2021/05/08 09:08:16;;;;;;;5.13;3.53;;;;;;;15.89;45.58;99393.44;10474249;28;20187;-78
2021/05/08 09:13:35;;;;;;;6.10;3.57;;;;;;;14.82;51.94;99385.84;10470323;28;20211;-80
2021/05/08 09:18:54;;;;;;;4.03;3.10;;;;;;;15.85;48.97;99385.19;10475931;28;20290;-81
2021/05/08 09:24:13;;;;;;;3.33;2.87;;;;;;;16.57;44.88;99378.47;10476338;28;20261;-76
2021/05/08 09:29:32;;;;;;;5.50;3.43;;;;;;;17.11;42.53;99358.91;10481416;28;20227;-75
2021/05/08 09:35:03;;;;;;;3.50;2.80;;;;;;;17.44;37.99;99370.75;10471786;28;20289;-75
2021/05/08 09:40:25;;;;;;;2.47;2.27;;;;;;;17.87;37.45;99355.22;10482872;28;20178;-76
2021/05/08 09:45:47;;;;;;;1.80;1.70;;;;;;;16.69;40.84;99355.59;10471786;28;20269;-75
2021/05/08 09:51:22;;;;;;;3.63;2.77;;;;;;;16.86;38.90;99347.63;10477803;28;20198;-76
2021/05/08 09:56:43;;;;;;;5.47;2.40;;;;;;;17.50;37.32;99338.41;10482591;28;20186;-76
2021/05/08 10:02:02;;;;;;;8.07;3.07;;;;;;;18.58;36.47;99322.06;10472761;28;20183;-75
2021/05/08 10:07:22;;;;;;;2.00;1.73;;;;;;;18.00;34.04;99322.66;10488952;28;20174;-78
2021/05/08 10:12:42;;;;;;;3.60;2.63;;;;;;;17.25;34.30;99319.59;10468922;28;20211;-75
2021/05/08 10:18:03;;;;;;;5.50;3.23;;;;;;;16.41;38.18;99311.81;10478248;28;20191;-77
2021/05/08 10:23:30;;;;;;;8.43;3.67;;;;;;;16.53;38.11;99308.34;10479736;28;20172;-78
2021/05/08 10:28:50;;;;;;;2.20;2.00;;;;;;;16.79;37.34;99303.34;10481788;28;20407;-77
2021/05/08 10:34:09;;;;;;;1.80;1.63;;;;;;;17.68;34.50;99292.19;10484653;28;20748;-76
2021/05/08 10:40:06;;;;;;;3.30;2.13;;;;;;;18.27;33.32;99275.69;10483201;28;20207;-77
2021/05/08 10:45:25;;;;;;;2.50;2.30;;;;;;;17.43;35.62;99267.09;10483568;28;20218;-77
2021/05/08 10:50:47;;;;;;;2.17;1.40;;;;;;;18.59;33.50;99253.94;10476529;28;20195;-78
2021/05/08 10:56:08;;;;;;;1.50;1.30;;;;;;;17.33;33.77;99259.00;10475417;28;20197;-76
2021/05/08 11:01:44;;;;;;;2.33;1.73;;;;;;;17.81;34.40;99246.44;10480719;28;20199;-79
2021/05/08 11:07:31;;;;;;;2.53;1.73;;;;;;;16.46;32.80;99239.88;10482030;28;20175;-76
2021/05/08 11:13:10;;;;;;;1.97;1.60;;;;;;;16.95;35.79;99241.38;10469984;28;20206;-79
2021/05/08 11:18:33;;;;;;;2.77;1.73;;;;;;;17.54;35.61;99228.59;10475739;28;20183;-77
2021/05/08 11:23:55;;;;;;;2.43;2.17;;;;;;;18.41;34.02;99212.72;10479710;28;20183;-77
2021/05/08 11:29:31;;;;;;;3.10;2.00;;;;;;;18.29;32.67;99212.78;10477254;28;20223;-76
2021/05/08 11:34:54;;;;;;;3.07;1.60;;;;;;;18.45;33.17;99207.81;10470551;28;20203;-76
2021/05/08 11:40:29;;;;;;;1.50;1.27;;;;;;;18.59;32.38;99201.00;10477092;28;20175;-77
2021/05/08 11:45:48;;;;;;;1.60;1.50;;;;;;;19.02;34.34;99190.69;10475740;28;20187;-77
2021/05/08 11:51:09;;;;;;;2.30;1.10;;;;;;;19.33;31.31;99192.38;10478227;28;20540;-80
2021/05/08 11:56:32;;;;;;;3.63;1.70;;;;;;;19.47;30.95;99207.78;10467217;28;20195;-76
2021/05/08 12:01:51;;;;;;;4.70;1.63;;;;;;;18.83;32.30;99188.97;10472870;28;20211;-74
2021/05/08 12:07:09;;;;;;;1.40;1.30;;;;;;;20.46;30.02;99172.72;10484935;28;20220;-76
2021/05/08 12:12:28;;;;;;;2.13;1.93;;;;;;;21.31;29.15;99165.78;10475677;28;20207;-75
2021/05/08 12:17:49;;;;;;;1.93;1.50;;;;;;;20.99;30.58;99149.66;10467067;28;20179;-78
2021/05/08 12:23:11;;;;;;;1.50;1.40;;;;;;;18.62;31.36;99161.06;10509909;28;20278;-75
2021/05/08 12:28:31;;;;;;;1.30;1.20;;;;;;;18.47;31.83;99141.31;10497581;28;20218;-76
2021/05/08 12:33:51;;;;;;;1.00;0.90;;;;;;;18.69;32.58;99139.31;10497319;28;20202;-74
2021/05/08 12:39:24;;;;;;;1.50;1.30;;;;;;;18.65;31.91;99118.38;10498127;28;20205;-74
2021/05/08 12:44:46;;;;;;;1.60;1.37;;;;;;;19.43;32.77;99104.69;10497541;28;20175;-75
2021/05/08 12:50:24;;;;;;;2.67;1.70;;;;;;;19.04;30.63;99103.78;10496989;28;20645;-78
2021/05/08 12:55:44;;;;;;;2.07;1.70;;;;;;;18.23;31.52;99100.34;10496620;28;20281;-77
2021/05/08 13:01:05;;;;;;;1.30;1.20;;;;;;;18.48;31.46;99089.94;10495721;28;20613;-75
2021/05/08 13:06:26;;;;;;;1.80;1.27;;;;;;;19.34;30.63;99095.50;10496889;28;20166;-76
2021/05/08 13:11:46;;;;;;;2.77;1.30;;;;;;;18.72;30.47;99093.84;10497699;28;20203;-75
2021/05/08 13:17:07;;;;;;;2.53;1.40;;;;;;;18.90;30.64;99082.03;10496444;28;20182;-75
2021/05/08 13:22:26;;;;;;;3.23;2.00;;;;;;;20.48;29.92;99073.19;10497588;28;20174;-78
2021/05/08 13:27:47;;;;;;;2.50;1.67;;;;;;;19.00;31.60;99078.84;10496233;28;20222;-76
2021/05/08 13:33:06;;;;;;;1.90;1.77;;;;;;;18.60;33.81;99071.59;10494732;28;20214;-76
2021/05/08 13:38:26;;;;;;;1.40;1.20;;;;;;;17.50;33.08;99054.69;10496327;28;20174;-75
2021/05/08 13:43:45;;;;;;;1.40;1.30;;;;;;;18.56;31.78;99035.50;10495967;28;20637;-75
2021/05/08 13:49:04;;;;;;;3.73;1.90;;;;;;;19.22;31.41;99026.66;10495629;28;20175;-78
2021/05/08 13:54:25;;;;;;;2.63;1.10;;;;;;;18.78;31.36;99027.16;10496335;28;20285;-76
2021/05/08 13:59:44;;;;;;;1.90;1.77;;;;;;;19.15;31.58;99012.19;10498312;28;20744;-78
2021/05/08 14:05:03;;;;;;;2.00;1.43;;;;;;;19.57;29.16;99003.69;10503443;28;20182;-78
2021/05/08 14:10:23;;;;;;;3.70;1.93;;;;;;;19.26;30.03;98986.19;10504302;28;20175;-78
2021/05/08 14:15:42;;;;;;;2.33;1.23;;;;;;;19.59;31.12;98981.66;10502417;28;20206;-77
2021/05/08 14:21:00;;;;;;;3.20;1.40;;;;;;;19.74;29.73;98970.66;10503870;28;20174;-79
2021/05/08 14:26:19;;;;;;;4.63;1.83;;;;;;;19.31;31.68;98973.66;10502694;28;20219;-77
2021/05/08 14:31:40;;;;;;;1.43;1.13;;;;;;;19.45;31.01;98959.16;10501118;28;20194;-77
2021/05/08 14:36:59;;;;;;;1.73;1.57;;;;;;;19.21;30.18;98963.72;10503403;28;20179;-78
2021/05/08 14:42:19;;;;;;;3.07;2.07;;;;;;;18.84;31.69;98956.38;10501865;28;20183;-78
2021/05/08 14:47:38;;;;;;;1.30;1.10;;;;;;;18.75;31.12;98950.75;10501937;28;20174;-77
2021/05/08 14:52:57;;;;;;;8.50;1.40;;;;;;;18.64;32.73;98944.84;10502378;28;20247;-76
2021/05/08 14:58:16;;;;;;;2.10;1.87;;;;;;;19.06;31.77;98929.22;10501448;28;20195;-77
2021/05/08 15:03:35;;;;;;;1.40;1.30;;;;;;;19.45;31.33;98928.47;10501293;28;20171;-78
2021/05/08 15:08:54;;;;;;;1.70;1.50;;;;;;;19.97;30.94;98919.84;10501024;28;20186;-75
2021/05/08 15:14:14;;;;;;;1.70;1.60;;;;;;;19.78;30.48;98912.69;10501434;28;20206;-76
2021/05/08 15:19:33;;;;;;;4.13;1.50;;;;;;;19.11;31.28;98906.34;10500688;28;20179;-76
2021/05/08 15:24:53;;;;;;;1.37;1.27;;;;;;;18.22;31.46;98903.84;10500283;28;20656;-73
2021/05/08 15:30:12;;;;;;;2.13;1.43;;;;;;;19.59;28.71;98892.34;10499648;28;20680;-78
2021/05/08 15:35:31;;;;;;;1.10;0.83;;;;;;;18.72;30.10;98898.75;10500697;28;20242;-76
2021/05/08 15:40:51;;;;;;;2.10;1.33;;;;;;;18.53;29.73;98896.34;10501244;28;20170;-76
2021/05/08 15:46:10;;;;;;;1.10;0.93;;;;;;;18.03;29.67;98904.97;10499850;28;20367;-77
2021/05/08 15:51:29;;;;;;;1.40;1.27;;;;;;;18.54;27.87;98900.66;10500731;28;20198;-75
2021/05/08 15:56:48;;;;;;;1.40;1.17;;;;;;;18.47;27.07;98890.56;10499396;28;20182;-77
2021/05/08 16:02:08;;;;;;;1.90;1.80;;;;;;;18.09;27.37;98883.66;10499022;28;20175;-77
2021/05/08 16:07:27;;;;;;;1.50;1.40;;;;;;;18.33;26.69;98887.53;10499922;28;20171;-75
2021/05/08 16:12:46;;;;;;;1.10;1.00;;;;;;;17.89;28.34;98879.63;10499637;28;20202;-75
2021/05/08 16:18:05;;;;;;;1.73;1.17;;;;;;;17.92;29.09;98870.38;10498202;28;20167;-75
2021/05/08 16:23:23;;;;;;;1.97;1.27;;;;;;;17.56;29.71;98872.88;10498733;28;20261;-75
2021/05/08 16:28:42;;;;;;;6.63;2.93;;;;;;;17.59;31.60;98866.41;10498761;28;20219;-76
2021/05/08 16:34:02;;;;;;;2.10;1.73;;;;;;;18.09;29.98;98860.59;10497518;28;20569;-76
2021/05/08 16:39:21;;;;;;;1.80;1.67;;;;;;;18.25;30.49;98863.97;10497933;28;20578;-76
2021/05/08 16:44:44;;;;;;;1.77;1.67;;;;;;;18.52;30.56;98853.75;10497718;28;20179;-76
2021/05/08 16:50:13;;;;;;;1.60;1.13;;;;;;;18.44;30.42;98837.78;10497316;28;20170;-76
2021/05/08 16:55:32;;;;;;;1.10;0.80;;;;;;;17.93;30.98;98844.13;10496665;28;20210;-75
2021/05/08 17:00:51;;;;;;;1.30;0.97;;;;;;;17.87;32.07;98832.78;10495905;28;20191;-75
2021/05/08 17:06:11;;;;;;;5.17;1.13;;;;;;;17.96;32.76;98835.63;10497024;28;20183;-75
2021/05/08 17:11:30;;;;;;;1.43;1.33;;;;;;;18.01;33.92;98843.38;10497654;28;20281;-75
2021/05/08 17:16:48;;;;;;;1.80;1.70;;;;;;;18.00;34.63;98832.72;10496301;28;20179;-76
2021/05/08 17:22:08;;;;;;;1.30;0.90;;;;;;;17.80;35.09;98830.25;10497612;28;20645;-76
2021/05/08 17:27:29;;;;;;;2.80;1.50;;;;;;;17.87;35.44;98827.22;10496176;28;20616;-75
2021/05/08 17:32:48;;;;;;;1.33;1.13;;;;;;;17.96;35.98;98812.56;10494934;28;20218;-76
2021/05/08 17:38:07;;;;;;;2.00;1.77;;;;;;;17.67;38.61;98810.06;10510122;28;20249;-75
2021/05/08 17:43:26;;;;;;;1.93;1.47;;;;;;;17.61;38.90;98813.88;10510978;28;20170;-76
2021/05/08 17:48:45;;;;;;;1.70;1.60;;;;;;;17.71;38.62;98801.56;10509796;28;20593;-76
2021/05/08 17:54:04;;;;;;;1.40;1.30;;;;;;;18.00;38.83;98802.09;10510505;28;20210;-74
2021/05/08 17:59:28;;;;;;;1.80;1.70;;;;;;;17.87;38.74;98790.25;10523628;28;20202;-75
2021/05/08 18:04:48;;;;;;;1.47;1.37;;;;;;;17.49;39.56;98789.69;10509369;28;20171;-74
2021/05/08 18:10:07;;;;;;;1.53;1.10;;;;;;;17.25;40.77;98790.50;10509690;28;20178;-75
2021/05/08 18:15:26;;;;;;;1.90;1.70;;;;;;;16.98;41.28;98787.50;10508602;28;20619;-75
2021/05/08 18:20:45;;;;;;;1.77;1.67;;;;;;;16.81;44.44;98777.75;10510266;28;20209;-76
2021/05/08 18:26:04;;;;;;;1.60;1.37;;;;;;;16.40;45.36;98780.69;10510147;28;20581;-74
2021/05/08 18:31:24;;;;;;;3.63;1.40;;;;;;;16.04;46.84;98782.22;10507800;28;20204;-75
2021/05/08 18:36:43;;;;;;;3.33;1.33;;;;;;;15.95;49.40;98776.53;10509058;28;20575;-75
2021/05/08 18:42:02;;;;;;;2.53;2.20;;;;;;;15.54;51.28;98775.78;10509937;28;20702;-75
2021/05/08 18:47:20;;;;;;;2.47;1.90;;;;;;;15.16;50.06;98772.84;10503753;28;20175;-74
2021/05/08 18:52:40;;;;;;;9.03;2.57;;;;;;;14.82;51.36;98769.00;10502831;28;20634;-75
2021/05/08 18:57:59;;;;;;;1.60;1.50;;;;;;;14.54;53.28;98778.03;10501795;28;20218;-75
2021/05/08 19:03:18;;;;;;;1.50;1.40;;;;;;;14.38;52.80;98788.28;10501423;28;20653;-75
2021/05/08 19:08:37;;;;;;;1.80;1.53;;;;;;;14.23;59.76;98792.59;10501463;28;20202;-76
2021/05/08 19:13:57;;;;;;;2.50;2.30;;;;;;;13.92;61.74;98785.78;10502014;28;20210;-74
2021/05/08 19:19:17;;;;;;;3.80;2.60;;;;;;;13.60;62.45;98790.44;10499792;28;20171;-74
2021/05/08 19:24:35;;;;;;;2.97;2.77;;;;;;;13.33;61.14;98792.56;10502088;28;20261;-75
2021/05/08 19:29:54;;;;;;;3.03;2.73;;;;;;;13.18;63.41;98801.50;10501002;28;20214;-75
2021/05/08 19:35:13;;;;;;;5.67;3.37;;;;;;;12.98;66.26;98800.72;10500975;28;20194;-74
2021/05/08 19:40:33;;;;;;;2.60;2.03;;;;;;;12.69;68.36;98793.31;10501210;28;20253;-75
2021/05/08 19:45:52;;;;;;;2.00;1.67;;;;;;;12.50;69.26;98794.81;10498845;28;20254;-74
2021/05/08 19:51:11;;;;;;;1.70;1.60;;;;;;;12.29;68.83;98795.13;10499765;28;20186;-74
2021/05/08 19:56:30;;;;;;;5.33;2.60;;;;;;;12.11;68.35;98791.88;10498950;28;20203;-74
2021/05/08 20:01:49;;;;;;;8.50;4.40;;;;;;;11.93;68.70;98783.06;10499347;28;20210;-74
2021/05/08 20:07:13;;;;;;;2.57;2.37;;;;;;;11.80;69.88;98778.53;10500280;28;20571;-75
2021/05/08 20:12:33;;;;;;;7.30;4.90;;;;;;;11.71;74.58;98781.00;10499752;28;20206;-76
2021/05/08 20:17:53;;;;;;;13.17;7.10;;;;;;;11.41;75.03;98791.19;10498314;28;20171;-74
2021/05/08 20:23:12;;;;;;;4.27;3.43;;;;;;;11.36;78.72;98797.94;10498575;28;20656;-74
2021/05/08 20:28:31;;;;;;;4.57;3.20;;;;;;;10.99;78.70;98790.88;10498705;28;20222;-75
2021/05/08 20:33:50;;;;;;;7.37;5.33;;;;;;;10.79;77.15;98784.38;10497462;28;20214;-74
2021/05/08 20:39:09;;;;;;;6.83;2.97;;;;;;;10.71;75.72;98783.69;10498022;28;20175;-74
2021/05/08 20:44:29;;;;;;;4.37;2.83;;;;;;;10.84;82.68;98787.47;10498931;28;20179;-74
2021/05/08 20:49:49;;;;;;;2.47;2.37;;;;;;;10.45;82.75;98783.53;10496862;28;20254;-75
2021/05/08 20:55:09;;;;;;;4.53;3.80;;;;;;;10.33;80.97;98789.50;10497805;28;20238;-75
2021/05/08 21:00:28;;;;;;;5.87;5.07;;;;;;;10.28;79.49;98786.41;10497043;28;20183;-74
2021/05/08 21:05:52;;;;;;;4.60;4.17;;;;;;;10.18;83.92;98787.28;10498228;28;20227;-75
2021/05/08 21:11:11;;;;;;;7.50;3.73;;;;;;;9.99;82.37;98785.03;10497718;28;20183;-75
2021/05/08 21:16:30;;;;;;;3.80;3.40;;;;;;;9.89;83.02;98785.84;10496544;28;20183;-77
2021/05/08 21:21:49;;;;;;;2.80;2.57;;;;;;;9.86;88.23;98783.91;10497890;28;20265;-75
2021/05/08 21:27:08;;;;;;;7.93;3.67;;;;;;;9.69;88.56;98793.81;10497317;28;20210;-77
2021/05/08 21:32:27;;;;;;;6.60;2.70;;;;;;;9.57;91.00;98786.00;10494676;28;20210;-76
2021/05/08 21:37:47;;;;;;;6.27;5.00;;;;;;;9.41;91.70;98786.91;10497340;28;20167;-76
2021/05/08 21:43:06;;;;;;;15.60;4.37;;;;;;;9.34;93.73;98790.44;10496263;28;20182;-76
2021/05/08 21:48:25;;;;;;;6.23;4.17;;;;;;;9.27;95.17;98792.41;10495918;28;20257;-77
2021/05/08 21:53:44;;;;;;;7.30;4.40;;;;;;;9.05;95.04;98780.72;10495585;28;20564;-75
2021/05/08 21:59:04;;;;;;;9.57;4.73;;;;;;;9.00;93.75;98788.59;10495538;28;20601;-74
2021/05/08 22:04:24;;;;;;;7.67;4.70;;;;;;;8.94;98.29;98796.44;10495602;28;20183;-75
2021/05/08 22:09:43;;;;;;;4.10;3.70;;;;;;;8.79;99.63;98794.09;10496981;28;20204;-75
2021/05/08 22:15:03;;;;;;;2.07;1.87;;;;;;;8.72;96.67;98794.88;10496261;28;20290;-75
2021/05/08 22:20:22;;;;;;;6.80;4.43;;;;;;;8.62;100.00;98789.41;10497454;28;20531;-76
2021/05/08 22:25:42;;;;;;;5.30;3.47;;;;;;;8.48;100.00;98783.19;10504175;28;20550;-74
2021/05/08 22:31:01;;;;;;;5.10;2.63;;;;;;;8.43;100.00;98794.53;10502789;28;20178;-76
2021/05/08 22:36:20;;;;;;;3.40;2.70;;;;;;;8.32;100.00;98783.56;10503021;28;20178;-75
2021/05/08 22:41:40;;;;;;;2.70;2.50;;;;;;;8.27;100.00;98777.69;10502601;28;20717;-73
2021/05/08 22:46:59;;;;;;;3.27;2.97;;;;;;;8.28;100.00;98780.03;10502216;28;20178;-75
2021/05/08 22:52:17;;;;;;;5.63;3.30;;;;;;;8.09;100.00;98785.88;10503194;28;20203;-74
2021/05/08 22:57:37;;;;;;;3.83;2.93;;;;;;;8.05;100.00;98778.81;10503138;28;20187;-74
2021/05/08 23:02:56;;;;;;;4.53;2.20;;;;;;;7.99;100.00;98777.66;10501508;28;20191;-75
2021/05/08 23:08:15;;;;;;;2.77;2.57;;;;;;;8.05;100.00;98781.56;10501782;28;20178;-74
2021/05/08 23:13:34;;;;;;;3.63;2.80;;;;;;;7.88;100.00;98782.31;10502116;28;20579;-74
2021/05/08 23:18:54;;;;;;;12.70;3.90;;;;;;;7.95;100.00;98771.38;10499974;28;20175;-74
2021/05/08 23:24:14;;;;;;;2.40;2.23;;;;;;;7.60;100.00;98774.03;10501015;28;20183;-73
2021/05/08 23:29:33;;;;;;;5.30;3.20;;;;;;;7.50;100.00;98758.38;10501184;28;20219;-73
2021/05/08 23:34:52;;;;;;;3.73;3.23;;;;;;;7.37;100.00;98768.09;10499566;28;20250;-76
2021/05/08 23:40:12;;;;;;;5.17;3.83;;;;;;;7.47;100.00;98770.09;10500449;28;20175;-74
2021/05/08 23:45:31;;;;;;;6.30;2.67;;;;;;;7.29;100.00;98768.47;10499922;28;20179;-74
2021/05/08 23:50:50;;;;;;;8.50;2.20;;;;;;;7.24;100.00;98755.94;10500917;28;20174;-74
2021/05/08 23:56:09;;;;;;;5.73;3.40;;;;;;;7.21;100.00;98753.19;10499090;28;20676;-77
